Raytown, Texas
Current Conditions -  °F | °C
As of 10:35 AM on Saturday 25 Oct 2014 (Local Time) from KSWW Reporting Station
Clear Clear  
Wind Chill: 74°   Ceiling: Unl
Heat Index: 74°   Visibility: 10mi
Dew Point: 59°   Wind: 16mph
Humidity: 61%   Direction: 210°SSW
Pressure: 30.23"   Gusts: NA
Location:  32.8661°N, 100.503°W
Report Text: KSWW 251535Z AUTO 21014KT 10SM CLR 23/15 A3023 RMK AO2 T02310152
Loading
Personal Weather Stations






























Interactive Weather Map
Tropical Storm Tracking
New forecast layout! Learn more

10-Day Weather Forecast

Advertisements
Track Severe Weather on mobile